sensor_id;sensor_type;location;lat;lon;timestamp;P1;durP1;ratioP1;P2;durP2;ratioP2
58152;SDS011;43967;51.634;5.566;2023-04-06T00:03:34;6.70;;;2.73;;
58152;SDS011;43967;51.634;5.566;2023-04-06T00:08:55;8.00;;;3.35;;
58152;SDS011;43967;51.634;5.566;2023-04-06T00:14:16;6.75;;;2.67;;
58152;SDS011;43967;51.634;5.566;2023-04-06T00:19:38;7.17;;;3.03;;
58152;SDS011;43967;51.634;5.566;2023-04-06T00:24:59;7.20;;;3.10;;
58152;SDS011;43967;51.634;5.566;2023-04-06T00:30:20;7.90;;;3.20;;
58152;SDS011;43967;51.634;5.566;2023-04-06T00:35:42;7.73;;;3.30;;
58152;SDS011;43967;51.634;5.566;2023-04-06T00:41:03;7.97;;;3.13;;
58152;SDS011;43967;51.634;5.566;2023-04-06T00:46:25;7.13;;;2.80;;
58152;SDS011;43967;51.634;5.566;2023-04-06T00:51:46;7.20;;;3.20;;
58152;SDS011;43967;51.634;5.566;2023-04-06T00:57:07;7.97;;;3.03;;
58152;SDS011;43967;51.634;5.566;2023-04-06T01:02:29;7.47;;;2.75;;
58152;SDS011;43967;51.634;5.566;2023-04-06T01:07:50;7.43;;;2.72;;
58152;SDS011;43967;51.634;5.566;2023-04-06T01:13:11;6.73;;;2.87;;
58152;SDS011;43967;51.634;5.566;2023-04-06T01:18:33;7.75;;;2.67;;
58152;SDS011;43967;51.634;5.566;2023-04-06T01:23:54;6.68;;;2.70;;
58152;SDS011;43967;51.634;5.566;2023-04-06T01:29:15;7.63;;;3.10;;
58152;SDS011;43967;51.634;5.566;2023-04-06T01:34:36;6.97;;;2.93;;
58152;SDS011;43967;51.634;5.566;2023-04-06T01:39:58;7.05;;;3.05;;
58152;SDS011;43967;51.634;5.566;2023-04-06T01:45:20;7.55;;;3.03;;
58152;SDS011;43967;51.634;5.566;2023-04-06T01:50:41;7.67;;;3.00;;
58152;SDS011;43967;51.634;5.566;2023-04-06T01:56:02;7.57;;;3.40;;
58152;SDS011;43967;51.634;5.566;2023-04-06T02:01:24;7.28;;;2.90;;
58152;SDS011;43967;51.634;5.566;2023-04-06T02:06:45;6.80;;;2.80;;
58152;SDS011;43967;51.634;5.566;2023-04-06T02:12:06;7.50;;;3.03;;
58152;SDS011;43967;51.634;5.566;2023-04-06T02:17:27;8.00;;;3.42;;
58152;SDS011;43967;51.634;5.566;2023-04-06T02:22:49;7.57;;;3.30;;
58152;SDS011;43967;51.634;5.566;2023-04-06T02:28:10;7.63;;;3.30;;
58152;SDS011;43967;51.634;5.566;2023-04-06T02:33:31;8.35;;;3.10;;
58152;SDS011;43967;51.634;5.566;2023-04-06T02:38:52;6.90;;;3.17;;
58152;SDS011;43967;51.634;5.566;2023-04-06T02:44:14;7.07;;;3.00;;
58152;SDS011;43967;51.634;5.566;2023-04-06T02:49:35;7.32;;;3.25;;
58152;SDS011;43967;51.634;5.566;2023-04-06T02:54:57;7.38;;;2.88;;
58152;SDS011;43967;51.634;5.566;2023-04-06T03:00:18;8.00;;;3.10;;
58152;SDS011;43967;51.634;5.566;2023-04-06T03:05:39;7.22;;;3.30;;
58152;SDS011;43967;51.634;5.566;2023-04-06T03:11:01;8.15;;;3.40;;
58152;SDS011;43967;51.634;5.566;2023-04-06T03:16:22;6.80;;;2.90;;
58152;SDS011;43967;51.634;5.566;2023-04-06T03:21:43;7.27;;;2.90;;
58152;SDS011;43967;51.634;5.566;2023-04-06T03:27:05;7.15;;;3.25;;
58152;SDS011;43967;51.634;5.566;2023-04-06T03:32:26;7.28;;;3.42;;
58152;SDS011;43967;51.634;5.566;2023-04-06T03:37:47;7.23;;;2.80;;
58152;SDS011;43967;51.634;5.566;2023-04-06T03:43:08;7.15;;;3.30;;
58152;SDS011;43967;51.634;5.566;2023-04-06T03:48:30;7.20;;;3.00;;
58152;SDS011;43967;51.634;5.566;2023-04-06T03:53:51;8.50;;;2.90;;
58152;SDS011;43967;51.634;5.566;2023-04-06T03:59:12;7.40;;;3.15;;
58152;SDS011;43967;51.634;5.566;2023-04-06T04:04:33;7.93;;;3.58;;
58152;SDS011;43967;51.634;5.566;2023-04-06T04:09:55;7.53;;;3.40;;
58152;SDS011;43967;51.634;5.566;2023-04-06T04:15:16;7.43;;;3.30;;
58152;SDS011;43967;51.634;5.566;2023-04-06T04:20:37;8.13;;;3.10;;
58152;SDS011;43967;51.634;5.566;2023-04-06T04:25:58;7.25;;;3.50;;
58152;SDS011;43967;51.634;5.566;2023-04-06T04:31:20;7.27;;;2.77;;
58152;SDS011;43967;51.634;5.566;2023-04-06T04:36:41;8.25;;;3.65;;
58152;SDS011;43967;51.634;5.566;2023-04-06T04:42:02;7.47;;;3.20;;
58152;SDS011;43967;51.634;5.566;2023-04-06T04:47:24;8.73;;;3.73;;
58152;SDS011;43967;51.634;5.566;2023-04-06T04:52:45;8.82;;;3.47;;
58152;SDS011;43967;51.634;5.566;2023-04-06T04:58:06;8.15;;;3.20;;
58152;SDS011;43967;51.634;5.566;2023-04-06T05:03:27;8.77;;;4.03;;
58152;SDS011;43967;51.634;5.566;2023-04-06T05:08:49;7.50;;;3.13;;
58152;SDS011;43967;51.634;5.566;2023-04-06T05:14:10;7.60;;;3.33;;
58152;SDS011;43967;51.634;5.566;2023-04-06T05:19:31;7.75;;;3.38;;
58152;SDS011;43967;51.634;5.566;2023-04-06T05:24:52;9.83;;;4.43;;
58152;SDS011;43967;51.634;5.566;2023-04-06T05:30:14;9.60;;;4.30;;
58152;SDS011;43967;51.634;5.566;2023-04-06T05:35:35;8.65;;;4.10;;
58152;SDS011;43967;51.634;5.566;2023-04-06T05:40:56;9.13;;;4.67;;
58152;SDS011;43967;51.634;5.566;2023-04-06T05:46:18;10.70;;;4.60;;
58152;SDS011;43967;51.634;5.566;2023-04-06T05:51:39;12.05;;;5.47;;
58152;SDS011;43967;51.634;5.566;2023-04-06T05:57:01;9.67;;;4.93;;
58152;SDS011;43967;51.634;5.566;2023-04-06T06:02:23;8.77;;;4.33;;
58152;SDS011;43967;51.634;5.566;2023-04-06T06:07:44;9.90;;;4.40;;
58152;SDS011;43967;51.634;5.566;2023-04-06T06:13:05;9.48;;;4.35;;
58152;SDS011;43967;51.634;5.566;2023-04-06T06:18:26;8.70;;;4.00;;
58152;SDS011;43967;51.634;5.566;2023-04-06T06:23:48;10.30;;;4.78;;
58152;SDS011;43967;51.634;5.566;2023-04-06T06:29:09;8.98;;;4.40;;
58152;SDS011;43967;51.634;5.566;2023-04-06T06:34:30;9.50;;;4.50;;
58152;SDS011;43967;51.634;5.566;2023-04-06T06:39:51;9.32;;;4.28;;
58152;SDS011;43967;51.634;5.566;2023-04-06T06:45:13;8.45;;;4.20;;
58152;SDS011;43967;51.634;5.566;2023-04-06T06:50:34;8.47;;;4.10;;
58152;SDS011;43967;51.634;5.566;2023-04-06T06:55:55;9.10;;;4.20;;
58152;SDS011;43967;51.634;5.566;2023-04-06T07:01:17;9.43;;;4.50;;
58152;SDS011;43967;51.634;5.566;2023-04-06T07:06:38;8.52;;;3.72;;
58152;SDS011;43967;51.634;5.566;2023-04-06T07:11:59;8.07;;;3.90;;
58152;SDS011;43967;51.634;5.566;2023-04-06T07:17:20;8.25;;;4.18;;
58152;SDS011;43967;51.634;5.566;2023-04-06T07:22:42;11.32;;;4.18;;
58152;SDS011;43967;51.634;5.566;2023-04-06T07:28:04;11.37;;;4.37;;
58152;SDS011;43967;51.634;5.566;2023-04-06T07:33:25;13.05;;;4.60;;
58152;SDS011;43967;51.634;5.566;2023-04-06T07:38:46;9.00;;;4.03;;
58152;SDS011;43967;51.634;5.566;2023-04-06T07:44:08;8.97;;;3.80;;
58152;SDS011;43967;51.634;5.566;2023-04-06T07:49:29;9.70;;;3.63;;
58152;SDS011;43967;51.634;5.566;2023-04-06T07:54:50;12.07;;;3.72;;
58152;SDS011;43967;51.634;5.566;2023-04-06T08:00:12;8.40;;;3.55;;
58152;SDS011;43967;51.634;5.566;2023-04-06T08:05:33;7.33;;;3.10;;
58152;SDS011;43967;51.634;5.566;2023-04-06T08:10:55;10.75;;;3.67;;
58152;SDS011;43967;51.634;5.566;2023-04-06T08:16:16;8.38;;;3.60;;
58152;SDS011;43967;51.634;5.566;2023-04-06T08:21:37;7.40;;;3.20;;
58152;SDS011;43967;51.634;5.566;2023-04-06T08:26:58;8.32;;;3.40;;
58152;SDS011;43967;51.634;5.566;2023-04-06T08:32:20;11.55;;;3.67;;
58152;SDS011;43967;51.634;5.566;2023-04-06T08:37:41;8.07;;;3.20;;
58152;SDS011;43967;51.634;5.566;2023-04-06T08:43:02;8.83;;;3.20;;
58152;SDS011;43967;51.634;5.566;2023-04-06T08:48:26;12.20;;;3.45;;
58152;SDS011;43967;51.634;5.566;2023-04-06T08:53:48;7.30;;;3.53;;
58152;SDS011;43967;51.634;5.566;2023-04-06T08:59:10;8.00;;;2.93;;
58152;SDS011;43967;51.634;5.566;2023-04-06T09:04:32;8.23;;;3.25;;
58152;SDS011;43967;51.634;5.566;2023-04-06T09:09:54;8.10;;;3.20;;
58152;SDS011;43967;51.634;5.566;2023-04-06T09:15:20;7.70;;;3.60;;
58152;SDS011;43967;51.634;5.566;2023-04-06T09:20:42;7.93;;;3.13;;
58152;SDS011;43967;51.634;5.566;2023-04-06T09:26:06;8.82;;;3.00;;
58152;SDS011;43967;51.634;5.566;2023-04-06T09:31:28;9.67;;;3.30;;
58152;SDS011;43967;51.634;5.566;2023-04-06T09:36:51;8.20;;;3.43;;
58152;SDS011;43967;51.634;5.566;2023-04-06T09:42:24;7.88;;;3.55;;
58152;SDS011;43967;51.634;5.566;2023-04-06T09:47:46;7.72;;;3.30;;
58152;SDS011;43967;51.634;5.566;2023-04-06T09:53:07;7.90;;;3.33;;
58152;SDS011;43967;51.634;5.566;2023-04-06T09:58:30;7.97;;;3.00;;
58152;SDS011;43967;51.634;5.566;2023-04-06T10:09:55;7.67;;;2.57;;
58152;SDS011;43967;51.634;5.566;2023-04-06T10:15:16;7.15;;;2.42;;
58152;SDS011;43967;51.634;5.566;2023-04-06T10:20:49;7.43;;;2.83;;
58152;SDS011;43967;51.634;5.566;2023-04-06T10:26:17;6.77;;;2.90;;
58152;SDS011;43967;51.634;5.566;2023-04-06T10:31:42;8.43;;;2.90;;
58152;SDS011;43967;51.634;5.566;2023-04-06T10:37:13;8.10;;;3.00;;
58152;SDS011;43967;51.634;5.566;2023-04-06T10:42:38;6.95;;;2.65;;
58152;SDS011;43967;51.634;5.566;2023-04-06T10:47:59;10.33;;;2.80;;
58152;SDS011;43967;51.634;5.566;2023-04-06T10:53:23;7.22;;;2.75;;
58152;SDS011;43967;51.634;5.566;2023-04-06T11:04:07;6.83;;;2.50;;
58152;SDS011;43967;51.634;5.566;2023-04-06T11:09:28;9.45;;;2.35;;
58152;SDS011;43967;51.634;5.566;2023-04-06T11:14:57;8.10;;;2.28;;
58152;SDS011;43967;51.634;5.566;2023-04-06T11:20:21;6.77;;;2.53;;
58152;SDS011;43967;51.634;5.566;2023-04-06T11:25:49;7.67;;;2.63;;
58152;SDS011;43967;51.634;5.566;2023-04-06T11:31:11;6.75;;;2.53;;
58152;SDS011;43967;51.634;5.566;2023-04-06T11:36:32;7.40;;;2.55;;
58152;SDS011;43967;51.634;5.566;2023-04-06T11:41:55;8.17;;;2.70;;
58152;SDS011;43967;51.634;5.566;2023-04-06T11:47:19;6.88;;;2.38;;
58152;SDS011;43967;51.634;5.566;2023-04-06T11:52:41;7.45;;;2.55;;
58152;SDS011;43967;51.634;5.566;2023-04-06T11:58:02;7.37;;;3.23;;
58152;SDS011;43967;51.634;5.566;2023-04-06T12:03:24;7.97;;;3.00;;
58152;SDS011;43967;51.634;5.566;2023-04-06T12:08:45;6.85;;;2.28;;
58152;SDS011;43967;51.634;5.566;2023-04-06T12:14:06;8.27;;;2.20;;
58152;SDS011;43967;51.634;5.566;2023-04-06T12:19:28;8.00;;;2.37;;
58152;SDS011;43967;51.634;5.566;2023-04-06T12:24:49;6.50;;;2.20;;
58152;SDS011;43967;51.634;5.566;2023-04-06T12:30:11;6.15;;;1.98;;
58152;SDS011;43967;51.634;5.566;2023-04-06T12:35:33;6.77;;;2.17;;
58152;SDS011;43967;51.634;5.566;2023-04-06T12:40:55;6.80;;;2.20;;
58152;SDS011;43967;51.634;5.566;2023-04-06T12:46:16;7.88;;;2.42;;
58152;SDS011;43967;51.634;5.566;2023-04-06T12:51:37;7.03;;;2.20;;
58152;SDS011;43967;51.634;5.566;2023-04-06T12:56:59;9.93;;;2.35;;
58152;SDS011;43967;51.634;5.566;2023-04-06T13:02:20;7.00;;;2.20;;
58152;SDS011;43967;51.634;5.566;2023-04-06T13:07:41;6.07;;;2.13;;
58152;SDS011;43967;51.634;5.566;2023-04-06T13:13:02;6.37;;;2.13;;
58152;SDS011;43967;51.634;5.566;2023-04-06T13:18:24;7.10;;;2.47;;
58152;SDS011;43967;51.634;5.566;2023-04-06T13:23:45;7.15;;;2.10;;
58152;SDS011;43967;51.634;5.566;2023-04-06T13:29:06;6.00;;;1.80;;
58152;SDS011;43967;51.634;5.566;2023-04-06T13:34:28;6.68;;;2.13;;
58152;SDS011;43967;51.634;5.566;2023-04-06T13:39:49;7.10;;;2.08;;
58152;SDS011;43967;51.634;5.566;2023-04-06T13:45:10;5.80;;;1.90;;
58152;SDS011;43967;51.634;5.566;2023-04-06T13:50:32;9.73;;;2.33;;
58152;SDS011;43967;51.634;5.566;2023-04-06T13:55:54;5.68;;;1.73;;
58152;SDS011;43967;51.634;5.566;2023-04-06T14:01:15;5.80;;;1.97;;
58152;SDS011;43967;51.634;5.566;2023-04-06T14:06:37;6.10;;;1.93;;
58152;SDS011;43967;51.634;5.566;2023-04-06T14:11:58;9.02;;;2.22;;
58152;SDS011;43967;51.634;5.566;2023-04-06T14:17:20;9.02;;;4.18;;
58152;SDS011;43967;51.634;5.566;2023-04-06T14:22:41;45.33;;;15.20;;
58152;SDS011;43967;51.634;5.566;2023-04-06T14:28:02;44.63;;;13.85;;
58152;SDS011;43967;51.634;5.566;2023-04-06T14:33:24;33.38;;;10.77;;
58152;SDS011;43967;51.634;5.566;2023-04-06T14:38:45;33.50;;;9.10;;
58152;SDS011;43967;51.634;5.566;2023-04-06T14:44:06;20.92;;;7.40;;
58152;SDS011;43967;51.634;5.566;2023-04-06T14:49:28;20.48;;;6.22;;
58152;SDS011;43967;51.634;5.566;2023-04-06T14:54:49;19.63;;;6.67;;
58152;SDS011;43967;51.634;5.566;2023-04-06T15:00:10;14.07;;;5.33;;
58152;SDS011;43967;51.634;5.566;2023-04-06T15:05:35;16.35;;;5.57;;
58152;SDS011;43967;51.634;5.566;2023-04-06T15:10:58;16.95;;;5.05;;
58152;SDS011;43967;51.634;5.566;2023-04-06T15:16:20;17.03;;;5.20;;
58152;SDS011;43967;51.634;5.566;2023-04-06T15:21:41;15.20;;;4.70;;
58152;SDS011;43967;51.634;5.566;2023-04-06T15:27:02;13.55;;;4.15;;
58152;SDS011;43967;51.634;5.566;2023-04-06T15:32:24;10.80;;;4.20;;
58152;SDS011;43967;51.634;5.566;2023-04-06T15:37:45;11.77;;;3.53;;
58152;SDS011;43967;51.634;5.566;2023-04-06T15:43:06;9.65;;;3.47;;
58152;SDS011;43967;51.634;5.566;2023-04-06T15:48:28;14.60;;;3.97;;
58152;SDS011;43967;51.634;5.566;2023-04-06T15:53:49;11.70;;;3.37;;
58152;SDS011;43967;51.634;5.566;2023-04-06T15:59:10;13.18;;;3.05;;
58152;SDS011;43967;51.634;5.566;2023-04-06T16:04:32;8.77;;;3.20;;
58152;SDS011;43967;51.634;5.566;2023-04-06T16:09:53;10.63;;;2.90;;
58152;SDS011;43967;51.634;5.566;2023-04-06T16:15:14;10.48;;;3.22;;
58152;SDS011;43967;51.634;5.566;2023-04-06T16:20:36;8.35;;;2.80;;
58152;SDS011;43967;51.634;5.566;2023-04-06T16:25:57;11.60;;;3.33;;
58152;SDS011;43967;51.634;5.566;2023-04-06T16:31:22;9.15;;;3.30;;
58152;SDS011;43967;51.634;5.566;2023-04-06T16:36:44;9.13;;;3.10;;
58152;SDS011;43967;51.634;5.566;2023-04-06T16:42:05;11.30;;;3.50;;
58152;SDS011;43967;51.634;5.566;2023-04-06T16:47:26;8.13;;;2.40;;
58152;SDS011;43967;51.634;5.566;2023-04-06T16:52:47;7.45;;;2.83;;
58152;SDS011;43967;51.634;5.566;2023-04-06T16:58:09;20.13;;;2.72;;
58152;SDS011;43967;51.634;5.566;2023-04-06T17:03:31;10.10;;;2.80;;
58152;SDS011;43967;51.634;5.566;2023-04-06T17:08:53;10.48;;;2.90;;
58152;SDS011;43967;51.634;5.566;2023-04-06T17:14:15;9.13;;;2.30;;
58152;SDS011;43967;51.634;5.566;2023-04-06T17:19:36;9.30;;;2.60;;
58152;SDS011;43967;51.634;5.566;2023-04-06T17:24:57;10.18;;;2.58;;
58152;SDS011;43967;51.634;5.566;2023-04-06T17:30:19;10.88;;;3.05;;
58152;SDS011;43967;51.634;5.566;2023-04-06T17:35:40;10.07;;;2.57;;
58152;SDS011;43967;51.634;5.566;2023-04-06T17:41:01;8.23;;;2.90;;
58152;SDS011;43967;51.634;5.566;2023-04-06T17:46:22;11.25;;;2.50;;
58152;SDS011;43967;51.634;5.566;2023-04-06T17:51:44;10.27;;;1.98;;
58152;SDS011;43967;51.634;5.566;2023-04-06T17:57:05;8.67;;;2.03;;
58152;SDS011;43967;51.634;5.566;2023-04-06T18:02:26;7.30;;;2.30;;
58152;SDS011;43967;51.634;5.566;2023-04-06T18:07:47;9.80;;;2.45;;
58152;SDS011;43967;51.634;5.566;2023-04-06T18:13:09;8.30;;;2.50;;
58152;SDS011;43967;51.634;5.566;2023-04-06T18:18:30;6.90;;;1.90;;
58152;SDS011;43967;51.634;5.566;2023-04-06T18:23:51;7.40;;;2.25;;
58152;SDS011;43967;51.634;5.566;2023-04-06T18:29:13;10.03;;;2.47;;
58152;SDS011;43967;51.634;5.566;2023-04-06T18:34:34;9.40;;;2.27;;
58152;SDS011;43967;51.634;5.566;2023-04-06T18:39:55;9.00;;;2.40;;
58152;SDS011;43967;51.634;5.566;2023-04-06T18:45:17;9.23;;;2.50;;
58152;SDS011;43967;51.634;5.566;2023-04-06T18:50:38;7.97;;;1.90;;
58152;SDS011;43967;51.634;5.566;2023-04-06T18:55:59;7.07;;;2.08;;
58152;SDS011;43967;51.634;5.566;2023-04-06T19:01:22;7.07;;;1.98;;
58152;SDS011;43967;51.634;5.566;2023-04-06T19:06:48;6.63;;;2.10;;
58152;SDS011;43967;51.634;5.566;2023-04-06T19:12:09;6.30;;;2.03;;
58152;SDS011;43967;51.634;5.566;2023-04-06T19:17:30;6.20;;;2.00;;
58152;SDS011;43967;51.634;5.566;2023-04-06T19:22:51;7.47;;;2.00;;
58152;SDS011;43967;51.634;5.566;2023-04-06T19:28:13;7.33;;;2.40;;
58152;SDS011;43967;51.634;5.566;2023-04-06T19:33:34;7.45;;;2.50;;
58152;SDS011;43967;51.634;5.566;2023-04-06T19:38:57;7.32;;;2.40;;
58152;SDS011;43967;51.634;5.566;2023-04-06T19:44:18;6.33;;;2.07;;
58152;SDS011;43967;51.634;5.566;2023-04-06T19:49:39;7.05;;;2.70;;
58152;SDS011;43967;51.634;5.566;2023-04-06T19:55:01;7.55;;;2.20;;
58152;SDS011;43967;51.634;5.566;2023-04-06T20:00:23;6.43;;;2.13;;
58152;SDS011;43967;51.634;5.566;2023-04-06T20:05:44;6.30;;;2.45;;
58152;SDS011;43967;51.634;5.566;2023-04-06T20:11:05;6.80;;;2.55;;
58152;SDS011;43967;51.634;5.566;2023-04-06T20:16:26;6.50;;;2.13;;
58152;SDS011;43967;51.634;5.566;2023-04-06T20:21:48;7.73;;;3.00;;
58152;SDS011;43967;51.634;5.566;2023-04-06T20:27:09;7.00;;;3.20;;
58152;SDS011;43967;51.634;5.566;2023-04-06T20:32:30;9.93;;;3.65;;
58152;SDS011;43967;51.634;5.566;2023-04-06T20:37:51;9.77;;;3.93;;
58152;SDS011;43967;51.634;5.566;2023-04-06T20:43:13;7.13;;;3.00;;
58152;SDS011;43967;51.634;5.566;2023-04-06T20:48:34;8.43;;;3.30;;
58152;SDS011;43967;51.634;5.566;2023-04-06T20:53:55;7.13;;;2.90;;
58152;SDS011;43967;51.634;5.566;2023-04-06T20:59:17;7.00;;;2.50;;
58152;SDS011;43967;51.634;5.566;2023-04-06T21:04:38;7.63;;;2.88;;
58152;SDS011;43967;51.634;5.566;2023-04-06T21:09:59;8.30;;;3.20;;
58152;SDS011;43967;51.634;5.566;2023-04-06T21:15:20;7.57;;;3.33;;
58152;SDS011;43967;51.634;5.566;2023-04-06T21:20:42;7.75;;;3.10;;
58152;SDS011;43967;51.634;5.566;2023-04-06T21:26:03;7.18;;;2.92;;
58152;SDS011;43967;51.634;5.566;2023-04-06T21:31:25;7.60;;;3.00;;
58152;SDS011;43967;51.634;5.566;2023-04-06T21:36:46;7.68;;;3.25;;
58152;SDS011;43967;51.634;5.566;2023-04-06T21:42:07;7.10;;;2.88;;
58152;SDS011;43967;51.634;5.566;2023-04-06T21:47:29;8.43;;;3.37;;
58152;SDS011;43967;51.634;5.566;2023-04-06T21:52:50;7.20;;;2.88;;
58152;SDS011;43967;51.634;5.566;2023-04-06T21:58:11;7.95;;;3.40;;
58152;SDS011;43967;51.634;5.566;2023-04-06T22:03:33;8.10;;;3.23;;
58152;SDS011;43967;51.634;5.566;2023-04-06T22:08:55;8.23;;;3.07;;
58152;SDS011;43967;51.634;5.566;2023-04-06T22:14:16;7.10;;;3.22;;
58152;SDS011;43967;51.634;5.566;2023-04-06T22:19:38;7.70;;;3.40;;
58152;SDS011;43967;51.634;5.566;2023-04-06T22:24:59;7.40;;;3.00;;
58152;SDS011;43967;51.634;5.566;2023-04-06T22:30:20;7.35;;;3.33;;
58152;SDS011;43967;51.634;5.566;2023-04-06T22:35:42;7.75;;;3.20;;
58152;SDS011;43967;51.634;5.566;2023-04-06T22:41:03;8.00;;;3.10;;
58152;SDS011;43967;51.634;5.566;2023-04-06T22:46:24;7.63;;;3.33;;
58152;SDS011;43967;51.634;5.566;2023-04-06T22:51:45;8.32;;;2.85;;
58152;SDS011;43967;51.634;5.566;2023-04-06T22:57:07;8.83;;;3.53;;
58152;SDS011;43967;51.634;5.566;2023-04-06T23:02:28;6.87;;;3.00;;
58152;SDS011;43967;51.634;5.566;2023-04-06T23:07:49;7.25;;;3.05;;
58152;SDS011;43967;51.634;5.566;2023-04-06T23:13:10;7.13;;;3.05;;
58152;SDS011;43967;51.634;5.566;2023-04-06T23:18:32;7.40;;;2.73;;
58152;SDS011;43967;51.634;5.566;2023-04-06T23:23:53;7.22;;;3.00;;
58152;SDS011;43967;51.634;5.566;2023-04-06T23:29:15;7.28;;;2.67;;
58152;SDS011;43967;51.634;5.566;2023-04-06T23:34:36;6.60;;;2.50;;
58152;SDS011;43967;51.634;5.566;2023-04-06T23:39:57;6.53;;;2.55;;
58152;SDS011;43967;51.634;5.566;2023-04-06T23:45:18;7.00;;;2.83;;
58152;SDS011;43967;51.634;5.566;2023-04-06T23:50:40;7.57;;;2.90;;
58152;SDS011;43967;51.634;5.566;2023-04-06T23:56:01;6.83;;;2.60;;
